Time;durP1;ratioP1;P1;durP2;ratioP2;P2;SDS_P1;SDS_P2;PMS_P1;PMS_P2;Temp;Humidity;BMP_temperature;BMP_pressure;BME280_temperature;BME280_humidity;BME280_pressure;Samples;Min_cycle;Max_cycle;Signal;HPM_P1;HPM_P2
2023/08/17 00:00:18;;;;;;;4.32;2.85;;;;;;;23.19;67.78;98222.00;5028406;28;20190;-58
2023/08/17 00:02:43;;;;;;;5.20;2.50;;;;;;;23.10;67.66;98188.78;5028472;28;20255;-58
2023/08/17 00:05:09;;;;;;;6.20;3.20;;;;;;;23.31;67.98;98228.41;5048086;28;20680;-58
2023/08/17 00:07:36;;;;;;;3.55;2.42;;;;;;;23.11;67.63;98216.81;5048106;28;20262;-58
2023/08/17 00:10:01;;;;;;;5.85;3.08;;;;;;;23.05;69.94;98206.16;5048131;28;20189;-58
2023/08/17 00:12:28;;;;;;;3.90;2.92;;;;;;;23.11;69.38;98230.00;5047946;28;20217;-58
2023/08/17 00:14:53;;;;;;;4.43;3.40;;;;;;;23.00;69.43;98204.09;5048205;28;20189;-58
2023/08/17 00:17:19;;;;;;;5.70;2.75;;;;;;;22.88;68.01;98189.78;5048193;28;20555;-58
2023/08/17 00:19:45;;;;;;;2.67;2.47;;;;;;;22.89;67.40;98193.25;5048657;28;20189;-58
2023/08/17 00:22:11;;;;;;;4.07;2.83;;;;;;;22.84;68.03;98217.53;5052210;28;20667;-58
2023/08/17 00:24:36;;;;;;;4.88;2.50;;;;;;;22.89;67.82;98219.63;5052100;28;20189;-58
2023/08/17 00:27:03;;;;;;;6.88;2.83;;;;;;;22.70;68.66;98193.81;5052083;28;20185;-58
2023/08/17 00:29:28;;;;;;;5.70;3.10;;;;;;;22.91;68.29;98217.59;5052028;28;20189;-58
2023/08/17 00:31:54;;;;;;;6.65;2.97;;;;;;;22.68;68.64;98201.91;5052242;28;20628;-58
2023/08/17 00:34:19;;;;;;;4.85;2.80;;;;;;;22.63;68.84;98198.22;5051978;28;21023;-58
2023/08/17 00:36:45;;;;;;;3.67;2.70;;;;;;;22.54;69.01;98178.22;5038540;28;20188;-57
2023/08/17 00:39:10;;;;;;;2.80;2.60;;;;;;;22.74;69.04;98210.94;5034719;28;20196;-57
2023/08/17 00:41:35;;;;;;;4.50;2.78;;;;;;;22.65;69.13;98202.31;5034178;28;20174;-58
2023/08/17 00:44:01;;;;;;;6.55;2.95;;;;;;;22.66;69.57;98203.13;5034302;28;20182;-58
2023/08/17 00:46:27;;;;;;;3.90;2.90;;;;;;;22.45;69.74;98181.97;5034356;28;20649;-58
2023/08/17 00:48:54;;;;;;;5.70;2.85;;;;;;;22.65;68.97;98222.56;5051682;28;20185;-57
2023/08/17 00:51:23;;;;;;;4.38;2.63;;;;;;;22.45;69.30;98179.34;5051564;28;20235;-57
2023/08/17 00:53:51;;;;;;;7.20;2.90;;;;;;;22.54;70.79;98200.13;5051430;28;20228;-58
2023/08/17 00:56:16;;;;;;;6.40;2.53;;;;;;;22.32;70.95;98173.88;5051620;28;20177;-58
2023/08/17 00:58:43;;;;;;;5.35;3.17;;;;;;;22.33;70.44;98186.06;5051555;28;20193;-58
2023/08/17 01:01:08;;;;;;;2.88;2.60;;;;;;;22.29;71.03;98169.78;5051548;28;20177;-58
2023/08/17 01:03:34;;;;;;;5.95;2.88;;;;;;;22.43;71.74;98195.34;5051534;28;20575;-58
2023/08/17 01:06:02;;;;;;;3.30;2.90;;;;;;;22.43;71.41;98184.78;5051474;28;20619;-58
2023/08/17 01:08:29;;;;;;;4.38;2.47;;;;;;;22.46;70.18;98199.41;5051154;28;20219;-58
2023/08/17 01:11:18;;;;;;;8.10;2.63;;;;;;;22.36;69.62;98199.69;5051379;28;20204;-58
2023/08/17 01:13:55;;;;;;;4.00;2.80;;;;;;;22.23;71.58;98180.25;5051314;28;20224;-58
2023/08/17 01:16:45;;;;;;;3.90;2.90;;;;;;;22.22;71.70;98182.06;5051297;28;20233;-58
2023/08/17 01:19:16;;;;;;;4.30;2.65;;;;;;;22.26;71.58;98195.69;5047703;28;20189;-58
2023/08/17 01:21:48;;;;;;;3.80;2.85;;;;;;;22.28;71.13;98176.06;5034033;28;20177;-58
2023/08/17 01:24:14;;;;;;;4.45;2.72;;;;;;;22.28;71.11;98170.78;5033712;28;20552;-58
2023/08/17 01:26:39;;;;;;;7.00;3.50;;;;;;;22.16;71.21;98163.53;5033606;28;20196;-58
2023/08/17 01:29:05;;;;;;;2.90;2.70;;;;;;;22.18;70.14;98174.69;5033559;28;20236;-58
2023/08/17 01:31:36;;;;;;;5.22;2.75;;;;;;;22.25;70.65;98191.44;5032895;28;20173;-58
2023/08/17 01:34:07;;;;;;;2.75;2.53;;;;;;;22.04;68.24;98176.34;5033460;28;20240;-58
2023/08/17 01:36:37;;;;;;;3.65;2.42;;;;;;;21.99;67.19;98173.44;5030886;28;20205;-58
2023/08/17 01:39:04;;;;;;;2.67;2.30;;;;;;;22.06;68.21;98192.81;5030953;28;20763;-58
2023/08/17 01:41:31;;;;;;;3.35;2.55;;;;;;;22.19;67.18;98211.41;5030870;28;20201;-58
2023/08/17 01:43:57;;;;;;;4.13;3.00;;;;;;;22.23;66.80;98209.22;5030752;28;20178;-58
2023/08/17 01:46:28;;;;;;;2.92;2.60;;;;;;;22.16;67.84;98200.44;5030754;28;20263;-58
2023/08/17 01:48:55;;;;;;;2.92;2.55;;;;;;;22.06;66.83;98189.34;5030830;28;20188;-58
2023/08/17 01:51:20;;;;;;;5.50;2.22;;;;;;;22.16;66.01;98201.25;5030710;28;20248;-58
2023/08/17 01:53:46;;;;;;;5.43;2.15;;;;;;;22.27;65.94;98218.41;5030605;28;20210;-58
2023/08/17 01:56:11;;;;;;;5.50;2.03;;;;;;;22.13;65.78;98190.22;5030613;28;20277;-58
2023/08/17 01:58:37;;;;;;;3.15;2.42;;;;;;;22.29;66.60;98217.25;5030526;28;20593;-58
2023/08/17 02:01:02;;;;;;;2.85;2.60;;;;;;;22.29;67.33;98219.03;5030473;28;20181;-58
2023/08/17 02:03:28;;;;;;;4.55;2.78;;;;;;;21.99;67.70;98191.06;5030459;28;20178;-58
2023/08/17 02:05:56;;;;;;;4.80;2.60;;;;;;;21.93;67.38;98197.06;5030415;28;20181;-58
2023/08/17 02:08:22;;;;;;;2.53;2.33;;;;;;;22.04;67.39;98212.44;5032004;28;20225;-58
2023/08/17 02:10:47;;;;;;;2.60;2.40;;;;;;;22.06;66.39;98208.59;5032760;28;20174;-58
2023/08/17 02:13:13;;;;;;;2.70;2.47;;;;;;;21.96;66.88;98180.91;5032668;28;20219;-58
2023/08/17 02:15:39;;;;;;;6.22;2.28;;;;;;;22.06;67.97;98200.72;5032795;28;20169;-58
2023/08/17 02:18:05;;;;;;;2.72;2.30;;;;;;;21.98;68.14;98171.78;5032293;28;20648;-58
2023/08/17 02:20:30;;;;;;;2.63;2.40;;;;;;;22.12;68.42;98193.88;5032568;28;20181;-58
2023/08/17 02:22:56;;;;;;;3.13;2.80;;;;;;;21.93;69.03;98173.34;5032568;28;20188;-58
2023/08/17 02:25:21;;;;;;;2.60;2.10;;;;;;;21.94;67.34;98185.53;5032229;28;20221;-58
2023/08/17 02:27:47;;;;;;;2.78;2.58;;;;;;;21.72;67.90;98154.78;5032486;28;20174;-58
2023/08/17 02:30:13;;;;;;;2.88;2.45;;;;;;;21.88;69.15;98179.16;5032464;28;20253;-58
2023/08/17 02:32:38;;;;;;;3.28;3.08;;;;;;;21.89;69.23;98182.59;5032267;28;20217;-58
2023/08/17 02:35:04;;;;;;;2.90;2.60;;;;;;;21.95;69.70;98197.69;5032329;28;20583;-58
2023/08/17 02:37:29;;;;;;;3.80;2.65;;;;;;;21.87;70.25;98184.63;5031992;28;20288;-58
2023/08/17 02:39:55;;;;;;;2.92;2.30;;;;;;;21.74;69.77;98168.63;5032281;28;20186;-58
2023/08/17 02:42:20;;;;;;;4.22;2.88;;;;;;;21.74;71.41;98205.50;5031055;28;20604;-58
2023/08/17 02:44:46;;;;;;;3.05;2.72;;;;;;;21.53;71.02;98165.81;5032310;28;20186;-58
2023/08/17 02:47:11;;;;;;;6.72;2.40;;;;;;;21.66;70.63;98187.91;5032056;28;20655;-58
2023/08/17 02:49:37;;;;;;;2.92;2.72;;;;;;;21.59;69.65;98180.91;5032084;28;20173;-58
2023/08/17 02:52:02;;;;;;;2.58;2.25;;;;;;;21.59;70.71;98186.19;5031911;28;20289;-58
2023/08/17 02:54:27;;;;;;;3.80;2.50;;;;;;;21.45;70.42;98163.28;5029160;28;20213;-58
2023/08/17 02:56:53;;;;;;;5.68;2.70;;;;;;;21.68;71.08;98193.06;5029414;28;20181;-58
2023/08/17 02:59:18;;;;;;;3.38;2.67;;;;;;;21.53;72.08;98173.72;5029418;28;20189;-58
2023/08/17 03:01:45;;;;;;;4.50;2.42;;;;;;;21.42;72.56;98161.00;5029433;28;20504;-58
2023/08/17 03:04:11;;;;;;;5.10;2.50;;;;;;;21.59;70.72;98199.34;5029291;28;20190;-57
2023/08/17 03:06:36;;;;;;;3.60;2.40;;;;;;;21.43;71.09;98170.53;5029206;28;20289;-57
2023/08/17 03:09:02;;;;;;;3.33;2.65;;;;;;;21.43;71.15;98183.69;5029192;28;20292;-57
2023/08/17 03:11:27;;;;;;;3.00;2.63;;;;;;;21.26;71.83;98174.28;5029395;28;20265;-57
2023/08/17 03:13:55;;;;;;;2.95;2.65;;;;;;;21.34;71.91;98182.94;5029161;28;20276;-58
2023/08/17 03:16:20;;;;;;;2.60;2.40;;;;;;;21.22;71.92;98167.78;5029050;28;20181;-58
2023/08/17 03:18:47;;;;;;;4.32;2.75;;;;;;;21.40;72.10;98187.50;5029016;28;20185;-58
2023/08/17 03:21:13;;;;;;;5.28;2.60;;;;;;;21.12;72.59;98164.56;5028955;28;20190;-58
2023/08/17 03:23:40;;;;;;;4.55;2.85;;;;;;;21.02;73.03;98158.69;5029245;28;20193;-58
2023/08/17 03:26:05;;;;;;;3.13;2.67;;;;;;;21.23;73.14;98190.44;5030519;28;20186;-58
2023/08/17 03:28:31;;;;;;;3.53;2.72;;;;;;;21.21;72.77;98187.19;5031313;28;20261;-58
2023/08/17 03:30:57;;;;;;;4.30;2.72;;;;;;;21.24;72.13;98181.56;5031301;28;20707;-58
2023/08/17 03:33:22;;;;;;;2.58;2.40;;;;;;;21.30;72.31;98202.72;5031248;28;20197;-58
2023/08/17 03:35:47;;;;;;;2.97;2.45;;;;;;;21.09;73.02;98175.44;5031550;28;20177;-58
2023/08/17 03:38:13;;;;;;;3.05;2.75;;;;;;;21.01;73.12;98170.22;5031489;28;20178;-58
2023/08/17 03:40:38;;;;;;;3.58;2.92;;;;;;;21.06;74.07;98178.41;5031149;28;20265;-57
2023/08/17 03:43:04;;;;;;;3.10;2.90;;;;;;;21.08;74.91;98192.19;5031121;28;20639;-58
2023/08/17 03:45:30;;;;;;;3.38;3.08;;;;;;;20.83;74.45;98151.25;5030846;28;20173;-57
2023/08/17 03:47:56;;;;;;;6.65;2.88;;;;;;;21.08;73.66;98184.31;5031118;28;20174;-57
2023/08/17 03:50:21;;;;;;;6.28;3.10;;;;;;;21.02;73.48;98187.66;5030953;28;20253;-58
2023/08/17 03:52:46;;;;;;;3.17;2.83;;;;;;;21.17;73.03;98201.69;5030940;28;20201;-58
2023/08/17 03:55:12;;;;;;;4.13;2.78;;;;;;;21.12;73.50;98188.22;5030761;28;20182;-57
2023/08/17 03:57:37;;;;;;;3.30;3.00;;;;;;;20.91;73.52;98174.88;5030884;28;20271;-57
2023/08/17 04:00:05;;;;;;;5.45;2.95;;;;;;;20.85;74.72;98172.94;5030923;28;20206;-58
2023/08/17 04:02:30;;;;;;;5.55;2.90;;;;;;;21.00;75.34;98192.28;5030785;28;20193;-57
2023/08/17 04:04:56;;;;;;;3.15;2.85;;;;;;;20.95;75.27;98177.03;5030891;28;20174;-57
2023/08/17 04:07:22;;;;;;;5.07;2.97;;;;;;;20.76;75.93;98166.91;5030788;28;20718;-57
2023/08/17 04:09:47;;;;;;;2.95;2.72;;;;;;;20.95;75.49;98191.97;5030844;28;20178;-57
2023/08/17 04:12:13;;;;;;;3.75;2.72;;;;;;;20.78;75.37;98157.06;5030639;28;20259;-57
2023/08/17 04:14:38;;;;;;;2.40;2.20;;;;;;;20.96;74.40;98183.91;5030552;28;20178;-58
2023/08/17 04:17:04;;;;;;;3.40;2.88;;;;;;;21.10;75.11;98204.19;5030798;28;20235;-58
2023/08/17 04:19:29;;;;;;;3.75;2.83;;;;;;;20.98;74.37;98171.38;5031033;28;20178;-58
2023/08/17 04:21:54;;;;;;;6.57;3.08;;;;;;;21.08;74.38;98174.63;5030810;28;20730;-58
2023/08/17 04:24:20;;;;;;;2.55;2.45;;;;;;;20.99;74.42;98173.03;5030686;28;20182;-58
2023/08/17 04:26:45;;;;;;;3.75;2.97;;;;;;;20.95;74.77;98155.97;5030354;28;20225;-58
2023/08/17 04:29:11;;;;;;;2.95;2.63;;;;;;;21.17;74.55;98181.47;5030364;28;20174;-58
2023/08/17 04:31:37;;;;;;;4.15;2.97;;;;;;;21.27;73.79;98197.00;5030619;28;20239;-58
2023/08/17 04:34:03;;;;;;;3.28;2.97;;;;;;;21.31;73.57;98185.94;5030576;28;20206;-58
2023/08/17 04:36:28;;;;;;;4.05;2.88;;;;;;;21.40;73.37;98198.03;5030583;28;20542;-58
2023/08/17 04:38:53;;;;;;;6.43;2.90;;;;;;;21.24;73.64;98171.84;5030866;28;20536;-58
2023/08/17 04:41:19;;;;;;;5.05;2.83;;;;;;;21.30;73.13;98175.59;5030835;28;20188;-58
2023/08/17 04:43:46;;;;;;;7.90;2.67;;;;;;;21.28;72.85;98172.31;5030596;28;20190;-58
2023/08/17 04:46:12;;;;;;;3.08;2.78;;;;;;;21.20;73.22;98167.94;5030511;28;20257;-59
2023/08/17 04:48:37;;;;;;;3.60;2.50;;;;;;;21.37;73.03;98190.50;5030455;28;20235;-58
2023/08/17 04:51:03;;;;;;;3.33;3.00;;;;;;;21.59;72.07;98201.97;5030469;28;20261;-58
2023/08/17 04:53:28;;;;;;;2.95;2.75;;;;;;;21.51;72.53;98191.53;5030372;28;20710;-58
2023/08/17 04:55:53;;;;;;;5.80;3.20;;;;;;;21.65;71.86;98211.78;5030213;28;20228;-58
2023/08/17 04:58:19;;;;;;;4.82;3.28;;;;;;;21.77;71.36;98211.22;5030151;28;20720;-58
2023/08/17 05:00:44;;;;;;;4.03;2.53;;;;;;;21.80;70.64;98196.88;5030397;28;20174;-58
2023/08/17 05:03:10;;;;;;;4.85;3.10;;;;;;;21.79;70.17;98184.72;5030272;28;20611;-58
2023/08/17 05:05:35;;;;;;;2.97;2.70;;;;;;;21.90;70.25;98194.78;5030612;28;20264;-58
2023/08/17 05:08:01;;;;;;;3.22;2.92;;;;;;;21.87;70.17;98185.44;5034076;28;20609;-58
2023/08/17 05:10:27;;;;;;;3.55;2.60;;;;;;;22.10;69.75;98206.44;5033919;28;20178;-58
2023/08/17 05:12:52;;;;;;;2.85;2.65;;;;;;;22.17;69.04;98212.59;5033830;28;20288;-59
2023/08/17 05:15:17;;;;;;;4.38;2.75;;;;;;;22.30;68.62;98213.59;5033854;28;20178;-59
2023/08/17 05:17:43;;;;;;;4.32;2.47;;;;;;;22.35;67.93;98211.22;5033789;28;20188;-58
2023/08/17 05:20:08;;;;;;;3.00;2.72;;;;;;;22.28;68.09;98193.69;5033861;28;20173;-58
2023/08/17 05:22:34;;;;;;;2.88;2.60;;;;;;;22.28;67.92;98180.50;5033742;28;20181;-58
2023/08/17 05:24:59;;;;;;;4.00;2.80;;;;;;;22.54;67.22;98215.13;5033683;28;20181;-59
2023/08/17 05:27:25;;;;;;;4.30;2.50;;;;;;;22.60;66.48;98203.88;5033622;28;20595;-58
2023/08/17 05:29:50;;;;;;;3.35;2.70;;;;;;;22.73;65.65;98198.75;5033290;28;20716;-59
2023/08/17 05:32:15;;;;;;;5.00;2.50;;;;;;;22.83;65.44;98204.50;5033492;28;20228;-58
2023/08/17 05:34:41;;;;;;;2.67;2.45;;;;;;;22.72;65.24;98194.47;5033777;28;20205;-58
2023/08/17 05:37:06;;;;;;;3.28;2.53;;;;;;;22.87;65.20;98211.06;5034131;28;20247;-58
2023/08/17 05:39:32;;;;;;;4.10;2.38;;;;;;;22.98;64.45;98219.31;5033829;28;20178;-58
2023/08/17 05:41:57;;;;;;;2.70;2.30;;;;;;;22.87;64.77;98187.31;5033980;28;20174;-58
2023/08/17 05:44:23;;;;;;;2.58;2.38;;;;;;;23.09;63.82;98195.06;5034030;28;20188;-58
2023/08/17 05:46:48;;;;;;;4.00;2.60;;;;;;;22.97;63.70;98174.63;5034275;28;20185;-58
2023/08/17 05:49:14;;;;;;;2.80;2.60;;;;;;;23.26;63.41;98193.00;5033808;28;20227;-58
2023/08/17 05:51:39;;;;;;;4.05;2.70;;;;;;;23.32;63.13;98194.91;5033514;28;20180;-58
2023/08/17 05:54:04;;;;;;;3.33;2.65;;;;;;;23.55;62.57;98208.72;5033818;28;20197;-59
2023/08/17 05:56:30;;;;;;;2.50;2.30;;;;;;;23.58;62.09;98211.78;5033771;28;20174;-59
2023/08/17 05:58:56;;;;;;;4.50;2.63;;;;;;;23.58;61.95;98195.94;5033812;28;20202;-58
2023/08/17 06:01:21;;;;;;;3.20;2.42;;;;;;;23.53;61.51;98184.31;5033631;28;20676;-58
2023/08/17 06:03:47;;;;;;;2.45;2.10;;;;;;;23.59;61.74;98184.34;5033416;28;20554;-58
2023/08/17 06:06:13;;;;;;;6.80;2.80;;;;;;;23.87;60.98;98206.31;5033289;28;20652;-58
2023/08/17 06:08:38;;;;;;;5.10;2.60;;;;;;;23.95;60.71;98213.31;5033661;28;20185;-57
2023/08/17 06:11:03;;;;;;;2.60;2.40;;;;;;;23.86;60.15;98186.97;5033440;28;20189;-58
2023/08/17 06:13:29;;;;;;;2.85;2.55;;;;;;;24.08;59.72;98208.09;5050574;28;20370;-57
2023/08/17 06:15:56;;;;;;;3.92;2.80;;;;;;;24.02;59.12;98176.13;5050945;28;20243;-57
2023/08/17 06:18:22;;;;;;;4.07;2.63;;;;;;;24.27;59.31;98209.00;5050698;28;20184;-58
2023/08/17 06:20:50;;;;;;;4.32;2.65;;;;;;;24.14;58.80;98171.94;5050825;28;20177;-58
2023/08/17 06:23:16;;;;;;;2.20;2.00;;;;;;;24.30;58.21;98174.25;5050583;28;20338;-58
2023/08/17 06:25:41;;;;;;;3.58;2.60;;;;;;;24.51;57.26;98187.38;5050760;28;20321;-58
2023/08/17 06:28:06;;;;;;;2.65;2.45;;;;;;;24.72;57.29;98203.13;5050672;28;20272;-58
2023/08/17 06:30:32;;;;;;;2.63;2.22;;;;;;;24.84;56.33;98201.53;5050620;28;20254;-58
2023/08/17 06:32:57;;;;;;;2.65;2.45;;;;;;;24.85;55.81;98182.00;5050503;28;20213;-58
2023/08/17 06:35:23;;;;;;;3.42;2.28;;;;;;;25.03;55.33;98195.47;5050551;28;20545;-58
2023/08/17 06:37:48;;;;;;;4.55;2.58;;;;;;;24.96;55.12;98180.59;5050434;28;20177;-58
2023/08/17 06:40:13;;;;;;;5.88;2.42;;;;;;;24.99;54.65;98172.25;5050384;28;20220;-58
2023/08/17 06:42:39;;;;;;;2.97;2.28;;;;;;;25.09;55.11;98178.78;5050583;28;20280;-58
2023/08/17 06:45:06;;;;;;;2.67;2.30;;;;;;;25.37;55.03;98215.72;5036768;28;20562;-58
2023/08/17 06:47:31;;;;;;;2.97;2.38;;;;;;;25.32;54.18;98189.03;5032372;28;20193;-58
2023/08/17 06:49:57;;;;;;;3.05;2.38;;;;;;;25.44;54.00;98204.13;5032546;28;20602;-58
2023/08/17 06:52:24;;;;;;;2.65;2.42;;;;;;;25.55;53.98;98206.16;5032548;28;20557;-58
2023/08/17 06:54:49;;;;;;;3.08;2.08;;;;;;;25.57;53.64;98188.22;5032723;28;20185;-58
2023/08/17 06:57:15;;;;;;;2.22;2.13;;;;;;;25.84;53.32;98216.31;5032630;28;20256;-58
2023/08/17 06:59:40;;;;;;;2.97;2.40;;;;;;;25.79;52.84;98186.16;5032915;28;20227;-58
2023/08/17 07:02:05;;;;;;;6.18;2.40;;;;;;;25.86;52.38;98182.47;5032409;28;20192;-59
2023/08/17 07:04:31;;;;;;;4.18;2.78;;;;;;;26.11;52.47;98212.66;5029644;28;20194;-59
2023/08/17 07:06:57;;;;;;;2.92;2.20;;;;;;;26.15;52.22;98207.75;5029715;28;20600;-59
2023/08/17 07:09:22;;;;;;;2.55;2.35;;;;;;;26.13;51.40;98194.69;5029977;28;20194;-58
2023/08/17 07:11:47;;;;;;;3.22;2.20;;;;;;;26.39;52.20;98220.31;5029986;28;20184;-58
2023/08/17 07:14:13;;;;;;;4.90;2.60;;;;;;;26.30;51.38;98198.50;5029787;28;20209;-58
2023/08/17 07:16:40;;;;;;;2.55;2.10;;;;;;;26.56;50.69;98206.41;5029941;28;20711;-58
2023/08/17 07:19:05;;;;;;;3.70;2.50;;;;;;;26.58;50.85;98195.59;5029799;28;20197;-58
2023/08/17 07:21:30;;;;;;;2.95;2.33;;;;;;;26.70;50.63;98197.38;5029827;28;20590;-58
2023/08/17 07:23:56;;;;;;;4.15;3.00;;;;;;;26.79;50.46;98190.78;5029970;28;20243;-58
2023/08/17 07:26:22;;;;;;;10.73;3.72;;;;;;;27.05;50.97;98203.91;5029691;28;20196;-58
2023/08/17 07:28:48;;;;;;;17.30;4.45;;;;;;;27.09;50.52;98191.84;5029243;28;20202;-58
2023/08/17 07:31:14;;;;;;;9.65;4.35;;;;;;;27.34;50.59;98208.66;5029478;28;20197;-58
2023/08/17 07:33:39;;;;;;;12.70;4.97;;;;;;;27.38;49.94;98203.72;5029517;28;20205;-58
2023/08/17 07:36:05;;;;;;;7.05;4.47;;;;;;;27.49;49.82;98198.53;5031070;28;20656;-58
2023/08/17 07:38:30;;;;;;;14.60;4.95;;;;;;;27.65;49.61;98221.91;5031877;28;20185;-58
2023/08/17 07:40:57;;;;;;;9.85;5.35;;;;;;;27.66;49.81;98218.22;5031955;28;20173;-58
2023/08/17 07:43:22;;;;;;;6.93;4.10;;;;;;;27.84;49.53;98223.63;5031845;28;20177;-58
2023/08/17 07:45:57;;;;;;;11.65;4.50;;;;;;;27.81;49.64;98213.41;5031814;28;20181;-58
2023/08/17 07:48:23;;;;;;;16.85;4.32;;;;;;;27.84;49.10;98205.00;5031808;28;20181;-58
2023/08/17 07:50:50;;;;;;;12.10;4.68;;;;;;;28.12;48.72;98231.97;5031680;28;20182;-58
2023/08/17 07:53:15;;;;;;;11.60;4.03;;;;;;;28.06;47.86;98203.56;5031577;28;20198;-58
2023/08/17 07:55:41;;;;;;;9.52;3.95;;;;;;;28.13;47.42;98212.28;5031718;28;20604;-58
2023/08/17 07:58:06;;;;;;;8.55;4.20;;;;;;;28.29;47.79;98227.66;5031651;28;20210;-58
2023/08/17 08:00:32;;;;;;;8.85;4.82;;;;;;;28.33;47.37;98220.88;5031298;28;20569;-58
2023/08/17 08:02:57;;;;;;;9.02;4.15;;;;;;;28.30;47.58;98207.19;5031584;28;20177;-58
2023/08/17 08:05:22;;;;;;;9.77;3.75;;;;;;;28.41;47.34;98217.13;5031811;28;20201;-58
2023/08/17 08:07:48;;;;;;;5.75;3.22;;;;;;;28.48;47.03;98221.34;5031246;28;20703;-58
2023/08/17 08:10:13;;;;;;;7.13;3.03;;;;;;;28.49;46.75;98212.31;5031503;28;20202;-58
2023/08/17 08:12:39;;;;;;;5.25;3.40;;;;;;;28.56;46.54;98215.72;5031452;28;20193;-58
2023/08/17 08:15:05;;;;;;;4.55;2.80;;;;;;;28.56;46.08;98199.75;5031538;28;20648;-58
2023/08/17 08:17:31;;;;;;;4.75;3.15;;;;;;;28.57;46.34;98192.56;5031310;28;20645;-58
2023/08/17 08:19:58;;;;;;;10.32;3.70;;;;;;;28.67;46.48;98209.63;5031380;28;20173;-59
2023/08/17 08:22:23;;;;;;;9.27;3.30;;;;;;;28.73;46.06;98210.56;5031274;28;20172;-58
2023/08/17 08:24:48;;;;;;;9.32;3.28;;;;;;;28.70;46.31;98190.56;5030997;28;20182;-59
2023/08/17 08:27:14;;;;;;;4.95;3.10;;;;;;;28.69;46.47;98190.78;5031384;28;20223;-58
2023/08/17 08:29:39;;;;;;;7.57;2.85;;;;;;;28.79;46.26;98194.53;5031348;28;20178;-58
2023/08/17 08:32:05;;;;;;;3.35;2.67;;;;;;;28.99;45.85;98211.09;5031360;28;20178;-58
2023/08/17 08:34:30;;;;;;;7.93;2.80;;;;;;;29.03;45.38;98203.47;5030945;28;20212;-58
2023/08/17 08:36:55;;;;;;;6.28;2.47;;;;;;;28.93;45.57;98187.97;5031630;28;20169;-58
2023/08/17 08:39:21;;;;;;;4.40;2.42;;;;;;;29.03;45.19;98182.16;5031314;28;20174;-58
2023/08/17 08:41:47;;;;;;;7.97;5.80;;;;;;;29.28;45.30;98210.28;5033390;28;20177;-58
2023/08/17 08:44:12;;;;;;;4.65;2.95;;;;;;;29.33;45.40;98212.25;5034803;28;20173;-58
2023/08/17 08:46:44;;;;;;;10.00;4.50;;;;;;;29.23;45.25;98194.13;5034834;28;20169;-58
2023/08/17 08:49:11;;;;;;;5.57;2.90;;;;;;;29.37;45.20;98211.56;5035077;28;20965;-58
2023/08/17 08:51:40;;;;;;;8.35;2.88;;;;;;;29.43;45.09;98210.63;5034972;28;20260;-58
2023/08/17 08:54:09;;;;;;;5.25;2.35;;;;;;;29.29;45.24;98182.56;5034644;28;20343;-58
2023/08/17 08:56:38;;;;;;;6.65;2.90;;;;;;;29.38;45.67;98191.03;5034718;28;20170;-58
2023/08/17 08:59:04;;;;;;;4.40;2.45;;;;;;;29.57;44.78;98211.28;5034918;28;20667;-58
2023/08/17 09:01:33;;;;;;;3.72;2.47;;;;;;;29.43;44.34;98181.31;5034766;28;20177;-58
2023/08/17 09:04:03;;;;;;;3.33;2.53;;;;;;;29.56;44.12;98194.44;5034477;28;20567;-58
2023/08/17 09:06:33;;;;;;;8.25;3.00;;;;;;;29.58;44.73;98194.22;5034744;28;20170;-58
2023/08/17 09:09:02;;;;;;;5.28;3.08;;;;;;;29.33;44.89;98164.25;5034732;28;20316;-58
2023/08/17 09:11:27;;;;;;;4.68;2.60;;;;;;;29.56;44.68;98180.31;5034730;28;20238;-57
2023/08/17 09:13:53;;;;;;;7.97;2.53;;;;;;;29.66;45.32;98194.69;5034535;28;20202;-58
2023/08/17 09:16:18;;;;;;;3.17;2.47;;;;;;;29.61;44.29;98170.56;5034876;28;20249;-58
2023/08/17 09:18:44;;;;;;;4.53;3.13;;;;;;;29.79;44.06;98197.13;5034889;28;20770;-58
2023/08/17 09:21:20;;;;;;;4.15;2.28;;;;;;;29.87;43.22;98170.13;5034433;28;20166;-58
2023/08/17 09:23:51;;;;;;;2.75;2.20;;;;;;;29.82;43.18;98153.16;5034421;28;20181;-58
2023/08/17 09:26:19;;;;;;;7.85;3.05;;;;;;;29.87;43.84;98159.44;5031768;28;20237;-58
2023/08/17 09:28:45;;;;;;;7.53;2.80;;;;;;;30.01;44.07;98186.69;5032013;28;20296;-58
2023/08/17 09:31:11;;;;;;;5.20;2.70;;;;;;;30.05;42.43;98198.53;5031946;28;20748;-58
2023/08/17 09:33:37;;;;;;;2.50;2.00;;;;;;;30.17;41.80;98194.00;5031806;28;20257;-58
2023/08/17 09:36:02;;;;;;;5.40;2.50;;;;;;;30.12;41.28;98170.69;4992470;28;20656;-57
2023/08/17 09:38:28;;;;;;;3.45;2.20;;;;;;;30.12;41.82;98184.03;4992366;28;20271;-57
2023/08/17 09:40:54;;;;;;;6.75;2.13;;;;;;;30.10;41.74;98180.00;4992261;28;20605;-57
2023/08/17 09:43:21;;;;;;;2.25;2.08;;;;;;;30.10;41.89;98175.47;4992304;28;20211;-57
2023/08/17 09:45:49;;;;;;;4.07;2.28;;;;;;;30.38;42.43;98194.19;4992229;28;20191;-57
2023/08/17 09:48:19;;;;;;;2.42;2.22;;;;;;;30.41;41.97;98171.56;4992038;28;20234;-57
2023/08/17 09:50:48;;;;;;;4.35;2.70;;;;;;;30.56;41.67;98179.88;4992057;28;20187;-57
2023/08/17 09:53:16;;;;;;;3.78;2.40;;;;;;;30.50;41.44;98170.94;4991479;28;20210;-57
2023/08/17 09:55:43;;;;;;;4.90;2.33;;;;;;;30.77;40.17;98188.09;4992025;28;20191;-57
2023/08/17 09:58:08;;;;;;;3.83;2.33;;;;;;;30.84;40.40;98194.09;5008962;28;20194;-57
2023/08/17 10:00:35;;;;;;;7.88;2.28;;;;;;;30.83;40.28;98178.31;5011412;28;20182;-58
2023/08/17 10:03:02;;;;;;;2.38;2.10;;;;;;;30.79;39.52;98159.25;5011404;28;20337;-58
2023/08/17 10:05:34;;;;;;;5.85;2.60;;;;;;;30.98;39.62;98183.94;5011708;28;20618;-58
2023/08/17 10:08:02;;;;;;;4.85;2.40;;;;;;;30.95;39.06;98163.84;5031501;28;20210;-57
2023/08/17 10:10:34;;;;;;;3.38;2.42;;;;;;;31.01;39.49;98180.78;5033544;28;20174;-58
2023/08/17 10:13:08;;;;;;;7.07;2.17;;;;;;;31.23;39.97;98179.06;5033573;28;20314;-58
2023/08/17 10:15:41;;;;;;;10.23;2.63;;;;;;;31.22;39.65;98148.84;5033552;28;20176;-58
2023/08/17 10:18:33;;;;;;;5.80;2.50;;;;;;;31.34;39.19;98140.72;5033480;28;20174;-58
2023/08/17 10:21:01;;;;;;;8.25;2.60;;;;;;;31.64;39.32;98163.44;5033520;28;20181;-58
2023/08/17 10:23:28;;;;;;;3.58;2.58;;;;;;;31.58;38.70;98137.66;5033386;28;20177;-59
2023/08/17 10:25:54;;;;;;;3.70;2.50;;;;;;;31.77;37.54;98139.03;5033386;28;20173;-58
2023/08/17 10:28:22;;;;;;;2.78;2.58;;;;;;;31.91;37.69;98132.28;5033179;28;20182;-59
2023/08/17 10:30:48;;;;;;;2.58;2.10;;;;;;;32.07;37.87;98144.78;5033206;28;20256;-58
2023/08/17 10:33:14;;;;;;;10.05;2.38;;;;;;;32.22;37.67;98161.06;5033071;28;20251;-59
2023/08/17 10:35:41;;;;;;;7.93;2.50;;;;;;;32.16;37.49;98140.66;5033168;28;20212;-58
2023/08/17 10:38:07;;;;;;;3.25;2.47;;;;;;;32.19;37.58;98145.53;5033086;28;20185;-59
2023/08/17 10:40:38;;;;;;;4.82;2.22;;;;;;;32.37;37.38;98160.50;5032828;28;20182;-57
2023/08/17 10:43:03;;;;;;;4.43;2.55;;;;;;;32.53;36.16;98152.38;5032745;28;20228;-57
2023/08/17 10:45:31;;;;;;;6.95;2.03;;;;;;;32.54;36.34;98123.72;5032650;28;20206;-57
2023/08/17 10:48:17;;;;;;;3.50;2.35;;;;;;;32.87;36.39;98145.81;5032859;28;20261;-57
2023/08/17 10:50:59;;;;;;;3.22;2.22;;;;;;;32.82;35.47;98112.78;5030052;28;20201;-57
2023/08/17 10:53:25;;;;;;;2.70;2.13;;;;;;;33.19;34.67;98138.63;5030255;28;20213;-57
2023/08/17 10:55:57;;;;;;;3.47;2.10;;;;;;;33.22;34.71;98123.88;5030203;28;20340;-57
2023/08/17 10:58:23;;;;;;;4.72;2.22;;;;;;;33.02;34.30;98116.47;5030379;28;20182;-57
2023/08/17 11:00:54;;;;;;;2.75;2.40;;;;;;;33.16;34.73;98108.81;5030262;28;20252;-57
2023/08/17 11:03:21;;;;;;;4.68;2.20;;;;;;;33.56;35.10;98141.34;5029602;28;20295;-57
2023/08/17 11:05:49;;;;;;;4.10;2.45;;;;;;;33.62;33.03;98133.06;5029961;28;20193;-57
2023/08/17 11:08:56;;;;;;;3.70;2.13;;;;;;;33.84;32.90;98133.78;5029879;28;20719;-57
2023/08/17 11:11:22;;;;;;;3.40;2.20;;;;;;;33.80;33.07;98094.28;4951888;29;20666;-57
2023/08/17 11:13:49;;;;;;;4.60;2.25;;;;;;;33.97;32.21;98100.28;4913464;29;20218;-57
2023/08/17 11:16:16;;;;;;;2.80;2.05;;;;;;;34.07;31.71;98100.31;4913721;29;20257;-57
2023/08/17 11:18:42;;;;;;;3.85;2.28;;;;;;;34.35;32.45;98129.50;4913739;29;20344;-58
2023/08/17 11:21:09;;;;;;;5.40;1.95;;;;;;;34.31;32.03;98088.09;4918627;29;20688;-57
2023/08/17 11:23:36;;;;;;;4.95;2.33;;;;;;;34.65;31.70;98116.97;4932611;29;20308;-58
2023/08/17 11:26:02;;;;;;;3.75;2.10;;;;;;;34.46;30.96;98094.34;4932593;29;20181;-58
2023/08/17 11:28:36;;;;;;;5.57;2.17;;;;;;;34.16;30.63;98088.03;4932558;29;20200;-58
2023/08/17 11:31:06;;;;;;;1.98;1.88;;;;;;;34.58;31.42;98100.28;4932436;29;20185;-58